createdAt,value
2022-10-15T00:01:23.559Z,13.10
2022-10-15T00:03:50.445Z,12.32
2022-10-15T00:06:20.769Z,9.75
2022-10-15T00:08:48.589Z,9.27
2022-10-15T00:11:26.109Z,13.65
2022-10-15T00:13:56.013Z,14.13
2022-10-15T00:16:26.380Z,11.43
2022-10-15T00:18:57.012Z,14.32
2022-10-15T00:21:23.825Z,9.50
2022-10-15T00:23:50.951Z,10.38
2022-10-15T00:26:22.398Z,9.40
2022-10-15T00:28:51.073Z,13.50
2022-10-15T00:31:21.131Z,15.15
2022-10-15T00:33:49.882Z,9.75
2022-10-15T00:36:20.929Z,15.05
2022-10-15T00:38:48.608Z,12.70
2022-10-15T00:41:31.777Z,17.60
2022-10-15T00:44:02.393Z,15.02
2022-10-15T00:46:38.473Z,17.30
2022-10-15T00:49:18.852Z,15.80
2022-10-15T00:51:50.233Z,20.30
2022-10-15T00:54:17.067Z,15.52
2022-10-15T00:56:45.875Z,12.75
2022-10-15T00:59:14.628Z,13.52
2022-10-15T01:01:42.132Z,15.25
2022-10-15T01:04:09.284Z,16.27
2022-10-15T01:06:37.124Z,16.35
2022-10-15T01:09:04.659Z,17.95
2022-10-15T01:11:47.777Z,13.98
2022-10-15T01:14:33.113Z,12.55
2022-10-15T01:17:26.546Z,16.80
2022-10-15T01:20:37.637Z,17.70
2022-10-15T01:23:54.108Z,15.00
2022-10-15T01:26:58.883Z,18.83
2022-10-15T01:30:04.046Z,18.48
2022-10-15T01:32:56.966Z,19.95
2022-10-15T01:35:55.059Z,19.05
2022-10-15T01:38:31.089Z,17.92
2022-10-15T01:41:18.944Z,17.80
2022-10-15T01:43:58.221Z,17.13
2022-10-15T01:46:35.879Z,15.05
2022-10-15T01:49:05.424Z,22.73
2022-10-15T01:51:35.482Z,20.58
2022-10-15T01:54:06.086Z,23.17
2022-10-15T01:56:36.527Z,15.73
2022-10-15T01:59:05.673Z,17.58
2022-10-15T02:01:32.578Z,13.65
2022-10-15T02:03:59.545Z,18.95
2022-10-15T02:06:34.440Z,15.13
2022-10-15T02:09:10.871Z,17.48
2022-10-15T02:12:12.770Z,14.05
2022-10-15T02:15:13.713Z,18.58
2022-10-15T02:18:06.671Z,14.82
2022-10-15T02:20:49.997Z,12.70
2022-10-15T02:23:36.709Z,18.92
2022-10-15T02:26:06.780Z,17.25
2022-10-15T02:28:37.663Z,17.70
2022-10-15T02:31:06.424Z,21.80
2022-10-15T02:33:35.617Z,14.73
2022-10-15T02:36:02.701Z,18.42
2022-10-15T02:38:31.959Z,15.43
2022-10-15T02:41:00.689Z,11.68
2022-10-15T02:43:27.474Z,15.25
2022-10-15T02:45:54.307Z,13.80
2022-10-15T02:48:21.284Z,12.23
2022-10-15T02:50:48.240Z,14.35
2022-10-15T02:53:15.032Z,15.45
2022-10-15T02:55:42.058Z,12.23
2022-10-15T02:58:08.916Z,13.85
2022-10-15T03:00:35.780Z,10.77
2022-10-15T03:03:02.947Z,10.73
2022-10-15T03:05:30.184Z,16.10
2022-10-15T03:07:59.716Z,8.43
2022-10-15T03:10:26.828Z,11.38
2022-10-15T03:12:53.639Z,13.45
2022-10-15T03:15:20.891Z,16.70
2022-10-15T03:17:47.669Z,12.13
2022-10-15T03:20:14.801Z,10.90
2022-10-15T03:22:41.566Z,9.48
2022-10-15T03:25:08.619Z,9.35
2022-10-15T03:27:35.405Z,10.00
2022-10-15T03:30:02.214Z,9.88
2022-10-15T03:32:32.024Z,12.88
2022-10-15T03:35:03.176Z,13.70
2022-10-15T03:37:29.974Z,12.45
2022-10-15T03:39:57.000Z,12.75
2022-10-15T03:42:24.282Z,12.48
2022-10-15T03:44:51.326Z,12.43
2022-10-15T03:47:18.119Z,10.88
2022-10-15T03:49:44.925Z,12.73
2022-10-15T03:52:11.830Z,12.43
2022-10-15T03:54:39.025Z,11.52
2022-10-15T03:57:05.943Z,11.88
2022-10-15T03:59:32.934Z,10.82
2022-10-15T04:01:59.820Z,11.85
2022-10-15T04:04:26.676Z,12.52
2022-10-15T04:06:53.626Z,14.80
2022-10-15T04:09:20.775Z,16.88
2022-10-15T04:11:47.567Z,14.00
2022-10-15T04:14:14.379Z,14.25
2022-10-15T04:16:41.183Z,16.73
2022-10-15T04:19:10.999Z,12.35
2022-10-15T04:21:38.176Z,12.50
2022-10-15T04:24:05.209Z,14.45
2022-10-15T04:26:32.128Z,10.48
2022-10-15T04:28:58.967Z,10.88
2022-10-15T04:31:26.104Z,7.32
2022-10-15T04:33:52.976Z,8.77
2022-10-15T04:36:19.793Z,6.60
2022-10-15T04:38:46.593Z,8.02
2022-10-15T04:41:13.638Z,7.60
2022-10-15T04:43:40.917Z,7.47
2022-10-15T04:46:09.401Z,9.77
2022-10-15T04:48:42.088Z,6.47
2022-10-15T04:51:15.107Z,6.70
2022-10-15T04:53:42.236Z,6.20
2022-10-15T04:56:15.593Z,6.63
2022-10-15T04:58:43.134Z,5.53
2022-10-15T05:01:13.572Z,8.32
2022-10-15T05:03:45.088Z,4.93
2022-10-15T05:06:20.369Z,9.05
2022-10-15T05:08:49.361Z,6.55
2022-10-15T05:11:23.463Z,7.28
2022-10-15T05:13:51.466Z,12.80
2022-10-15T05:16:21.934Z,8.43
2022-10-15T05:18:52.339Z,11.00
2022-10-15T05:21:19.968Z,9.40
2022-10-15T05:23:47.515Z,10.60
2022-10-15T05:26:17.503Z,9.38
2022-10-15T05:28:44.766Z,8.68
2022-10-15T05:31:19.210Z,10.13
2022-10-15T05:33:47.979Z,10.05
2022-10-15T05:36:30.601Z,9.00
2022-10-15T05:39:04.133Z,8.90
2022-10-15T05:41:31.236Z,10.93
2022-10-15T05:43:59.585Z,6.93
2022-10-15T05:46:26.715Z,10.68
2022-10-15T05:48:56.737Z,12.07
2022-10-15T05:51:26.243Z,4.72
2022-10-15T05:53:57.676Z,8.45
2022-10-15T05:56:25.586Z,8.07
2022-10-15T05:58:52.579Z,6.93
2022-10-15T06:01:20.334Z,8.98
2022-10-15T06:03:47.507Z,3.63
2022-10-15T06:06:26.487Z,7.50
2022-10-15T06:08:55.355Z,4.93
2022-10-15T06:11:22.698Z,3.88
2022-10-15T06:13:49.504Z,4.97
2022-10-15T06:16:21.133Z,4.43
2022-10-15T06:18:52.905Z,5.35
2022-10-15T06:21:19.951Z,9.15
2022-10-15T06:23:46.876Z,4.70
2022-10-15T06:26:13.687Z,8.02
2022-10-15T06:28:40.593Z,3.67
2022-10-15T06:31:08.230Z,4.32
2022-10-15T06:33:36.277Z,6.30
2022-10-15T06:36:14.132Z,5.50
2022-10-15T06:38:44.308Z,3.85
2022-10-15T06:41:11.812Z,9.27
2022-10-15T06:43:38.718Z,4.20
2022-10-15T06:46:06.756Z,5.28
2022-10-15T06:48:34.562Z,5.30
2022-10-15T06:51:02.979Z,6.10
2022-10-15T06:53:30.805Z,4.50
2022-10-15T06:56:03.005Z,4.97
2022-10-15T06:58:30.246Z,5.97
2022-10-15T07:01:02.103Z,7.80
2022-10-15T07:03:29.647Z,8.15
2022-10-15T07:05:56.751Z,5.57
2022-10-15T07:08:25.755Z,7.75
2022-10-15T07:10:52.547Z,7.20
2022-10-15T07:13:19.374Z,6.93
2022-10-15T07:15:47.377Z,6.70
2022-10-15T07:18:14.232Z,6.00
2022-10-15T07:20:41.508Z,7.70
2022-10-15T07:23:08.303Z,7.72
2022-10-15T07:25:35.141Z,11.55
2022-10-15T07:28:01.935Z,4.40
2022-10-15T07:30:28.936Z,3.83
2022-10-15T07:32:57.801Z,5.30
2022-10-15T07:35:26.191Z,6.68
2022-10-15T07:37:53.353Z,10.57
2022-10-15T07:40:20.641Z,6.32
2022-10-15T07:42:58.319Z,5.30
2022-10-15T07:45:26.620Z,4.32
2022-10-15T07:47:54.550Z,6.20
2022-10-15T07:50:21.657Z,5.22
2022-10-15T07:52:48.606Z,4.78
2022-10-15T07:55:15.490Z,9.70
2022-10-15T07:57:42.265Z,4.50
2022-10-15T08:00:10.121Z,6.90
2022-10-15T08:02:36.892Z,5.00
2022-10-15T08:05:04.254Z,9.32
2022-10-15T08:07:31.108Z,8.32
2022-10-15T08:09:57.967Z,6.28
2022-10-15T08:12:25.368Z,6.60
2022-10-15T08:14:52.423Z,5.78
2022-10-15T08:17:19.242Z,5.07
2022-10-15T08:19:46.023Z,4.85
2022-10-15T08:22:13.018Z,6.03
2022-10-15T08:24:42.971Z,4.90
2022-10-15T08:27:09.845Z,5.85
2022-10-15T08:29:36.624Z,7.78
2022-10-15T08:32:03.616Z,4.95
2022-10-15T08:34:30.389Z,4.07
2022-10-15T08:36:57.554Z,3.83
2022-10-15T08:39:24.420Z,5.13
2022-10-15T08:42:12.383Z,3.30
2022-10-15T08:44:47.779Z,5.57
2022-10-15T08:47:31.595Z,4.78
2022-10-15T08:51:01.749Z,7.43
2022-10-15T08:53:29.928Z,5.80
2022-10-15T08:56:04.409Z,8.10
2022-10-15T08:58:59.115Z,8.20
2022-10-15T09:01:43.431Z,8.07
2022-10-15T09:04:28.441Z,6.28
2022-10-15T09:07:15.090Z,6.60
2022-10-15T09:10:39.507Z,6.22
2022-10-15T09:13:33.730Z,4.70
2022-10-15T09:16:14.540Z,5.25
2022-10-15T09:18:48.347Z,3.92
2022-10-15T09:21:16.194Z,5.20
2022-10-15T09:23:44.460Z,4.75
2022-10-15T09:26:23.121Z,10.18
2022-10-15T09:29:14.609Z,4.05
2022-10-15T09:31:51.914Z,7.20
2022-10-15T09:34:29.981Z,5.60
2022-10-15T09:37:12.241Z,7.95
2022-10-15T09:40:00.405Z,8.55
2022-10-15T09:42:30.809Z,6.97
2022-10-15T09:45:07.440Z,8.85
2022-10-15T09:47:36.693Z,9.80
2022-10-15T09:50:08.256Z,10.65
2022-10-15T09:52:47.262Z,12.00
2022-10-15T09:55:57.473Z,13.75
2022-10-15T09:58:37.766Z,8.35
2022-10-15T10:01:08.173Z,7.38
2022-10-15T10:03:37.183Z,13.38
2022-10-15T10:06:12.536Z,9.93
2022-10-15T10:08:53.942Z,9.43
2022-10-15T10:11:22.889Z,13.35
2022-10-15T10:13:49.600Z,11.07
2022-10-15T10:16:19.764Z,13.75
2022-10-15T10:19:20.363Z,10.52
2022-10-15T10:21:47.164Z,10.40
2022-10-15T10:24:31.955Z,10.70
2022-10-15T10:26:59.842Z,7.32
2022-10-15T10:29:34.110Z,11.50
2022-10-15T10:32:12.642Z,13.00
2022-10-15T10:34:42.649Z,12.65
2022-10-15T10:37:11.708Z,11.65
2022-10-15T10:39:38.797Z,12.23
2022-10-15T10:42:11.787Z,9.82
2022-10-15T10:44:42.169Z,13.07
2022-10-15T10:47:16.787Z,11.65
2022-10-15T10:49:51.245Z,9.52
2022-10-15T10:52:33.216Z,7.68
2022-10-15T10:55:18.178Z,14.20
2022-10-15T10:58:02.734Z,7.45
2022-10-15T11:00:43.377Z,9.75
2022-10-15T11:03:36.413Z,10.07
2022-10-15T11:06:12.391Z,5.70
2022-10-15T11:08:58.450Z,10.30
2022-10-15T11:11:57.113Z,12.50
2022-10-15T11:14:30.325Z,8.13
2022-10-15T11:17:23.919Z,10.75
2022-10-15T11:20:42.264Z,10.40
2022-10-15T11:23:03.155Z,9.82
2022-10-15T11:26:17.380Z,8.18
2022-10-15T11:29:19.349Z,10.70
2022-10-15T11:32:15.355Z,8.45
2022-10-15T11:35:34.568Z,11.35
2022-10-15T11:38:34.106Z,9.25
2022-10-15T11:41:43.740Z,11.10
2022-10-15T11:45:12.161Z,7.80
2022-10-15T11:48:05.109Z,7.03
2022-10-15T11:50:59.150Z,12.20
2022-10-15T11:54:00.195Z,13.95
2022-10-15T11:56:35.022Z,9.18
2022-10-15T11:59:49.176Z,7.25
2022-10-15T12:02:24.055Z,7.65
2022-10-15T12:07:42.353Z,11.68
2022-10-15T12:10:12.072Z,13.55
2022-10-15T12:12:59.367Z,15.45
2022-10-15T12:15:45.481Z,9.75
2022-10-15T12:18:28.392Z,9.82
2022-10-15T12:20:55.943Z,8.65
2022-10-15T12:23:42.405Z,11.50
2022-10-15T12:26:24.654Z,11.00
2022-10-15T12:28:56.559Z,6.35
2022-10-15T12:31:25.723Z,13.95
2022-10-15T12:33:55.433Z,13.55
2022-10-15T12:36:30.519Z,8.20
2022-10-15T12:42:23.344Z,11.50
2022-10-15T12:44:51.172Z,10.68
2022-10-15T12:47:56.250Z,10.98
2022-10-15T12:50:31.243Z,7.85
2022-10-15T12:52:59.820Z,10.15
2022-10-15T12:55:38.998Z,12.32
2022-10-15T12:58:31.736Z,7.30
2022-10-15T13:00:58.703Z,12.55
2022-10-15T13:03:36.112Z,10.93
2022-10-15T13:06:21.273Z,14.23
2022-10-15T13:08:53.598Z,9.13
2022-10-15T13:11:32.409Z,10.27
2022-10-15T13:14:40.163Z,15.65
2022-10-15T13:17:16.794Z,12.40
2022-10-15T13:19:56.563Z,12.45
2022-10-15T13:22:29.757Z,16.98
2022-10-15T13:24:57.636Z,17.45
2022-10-15T13:27:27.262Z,13.73
2022-10-15T13:30:07.626Z,13.07
2022-10-15T13:32:40.872Z,15.25
2022-10-15T13:35:17.712Z,11.05
2022-10-15T13:37:47.013Z,14.10
2022-10-15T13:40:32.906Z,11.18
2022-10-15T13:43:14.018Z,9.77
2022-10-15T13:45:47.984Z,13.30
2022-10-15T13:48:23.128Z,11.10
2022-10-15T13:53:35.475Z,10.15
2022-10-15T13:56:25.015Z,12.93
2022-10-15T13:58:53.364Z,14.75
2022-10-15T14:01:25.529Z,13.60
2022-10-15T14:03:58.612Z,12.15
2022-10-15T14:06:38.255Z,12.18
2022-10-15T14:09:40.399Z,13.48
2022-10-15T14:12:08.647Z,14.50
2022-10-15T14:14:37.834Z,13.82
2022-10-15T14:17:21.027Z,16.42
2022-10-15T14:22:51.686Z,9.35
2022-10-15T14:25:25.061Z,8.63
2022-10-15T14:27:52.566Z,7.68
2022-10-15T14:30:32.150Z,7.68
2022-10-15T14:32:59.394Z,9.88
2022-10-15T14:35:36.307Z,7.68
2022-10-15T14:38:17.069Z,7.35
2022-10-15T14:41:26.126Z,5.47
2022-10-15T14:44:18.197Z,10.10
2022-10-15T14:46:52.922Z,8.68
2022-10-15T14:49:29.264Z,15.07
2022-10-15T14:52:00.945Z,16.92
2022-10-15T14:54:35.670Z,15.73
2022-10-15T14:57:02.971Z,19.45
2022-10-15T14:59:36.070Z,14.90
2022-10-15T15:02:04.749Z,17.35
2022-10-15T15:04:44.917Z,13.95
2022-10-15T15:07:21.490Z,14.63
2022-10-15T15:09:52.390Z,13.52
2022-10-15T15:12:27.093Z,13.63
2022-10-15T15:14:54.976Z,18.48
2022-10-15T15:17:28.027Z,13.55
2022-10-15T15:19:57.539Z,17.52
2022-10-15T15:22:34.197Z,16.95
2022-10-15T15:25:06.653Z,16.35
2022-10-15T15:27:37.382Z,17.20
2022-10-15T15:30:08.703Z,12.75
2022-10-15T15:32:35.690Z,15.65
2022-10-15T15:35:02.497Z,18.23
2022-10-15T15:37:30.320Z,16.67
2022-10-15T15:39:57.100Z,23.15
2022-10-15T15:42:26.246Z,18.35
2022-10-15T15:44:53.304Z,14.30
2022-10-15T15:47:20.128Z,20.58
2022-10-15T15:49:47.293Z,18.60
2022-10-15T15:52:14.530Z,22.42
2022-10-15T15:54:41.730Z,18.17
2022-10-15T15:57:08.569Z,18.77
2022-10-15T15:59:35.537Z,13.95
2022-10-15T16:02:02.455Z,17.90
2022-10-15T16:04:29.370Z,13.55
2022-10-15T16:06:56.184Z,13.02
2022-10-15T16:09:23.726Z,14.88
2022-10-15T16:11:51.228Z,16.85
2022-10-15T16:14:18.179Z,13.82
2022-10-15T16:16:45.026Z,12.63
2022-10-15T16:19:12.080Z,14.50
2022-10-15T16:21:38.857Z,14.40
2022-10-15T16:24:06.113Z,12.25
2022-10-15T16:26:33.228Z,10.93
2022-10-15T16:29:00.214Z,14.48
2022-10-15T16:31:33.404Z,14.15
2022-10-15T16:34:00.281Z,14.88
2022-10-15T16:36:27.118Z,15.10
2022-10-15T16:38:54.269Z,12.23
2022-10-15T16:41:21.088Z,20.63
2022-10-15T16:43:48.971Z,15.88
2022-10-15T16:46:18.644Z,12.98
2022-10-15T16:48:46.029Z,13.55
2022-10-15T16:51:16.318Z,14.52
2022-10-15T16:53:45.704Z,14.88
2022-10-15T16:56:25.246Z,16.60
2022-10-15T16:58:52.837Z,14.32
2022-10-15T17:01:24.186Z,13.75
2022-10-15T17:03:51.512Z,15.98
2022-10-15T17:06:23.710Z,12.82
2022-10-15T17:08:55.219Z,10.60
2022-10-15T17:11:29.820Z,10.68
2022-10-15T17:14:00.604Z,13.50
2022-10-15T17:16:34.841Z,12.10
2022-10-15T17:19:02.765Z,17.53
2022-10-15T17:21:31.186Z,13.05
2022-10-15T17:24:02.628Z,13.88
2022-10-15T17:26:36.288Z,13.35
2022-10-15T17:29:05.277Z,16.10
2022-10-15T17:31:33.032Z,10.05
2022-10-15T17:34:05.608Z,16.70
2022-10-15T17:36:42.616Z,16.25
2022-10-15T17:39:11.006Z,19.02
2022-10-15T17:41:37.865Z,20.98
2022-10-15T17:44:04.851Z,28.70
2022-10-15T17:46:31.908Z,20.83
2022-10-15T17:48:59.852Z,14.02
2022-10-15T17:51:30.712Z,12.30
2022-10-15T17:53:59.567Z,28.02
2022-10-15T17:56:32.973Z,24.52
2022-10-15T17:59:01.822Z,21.73
2022-10-15T18:01:56.190Z,18.50
2022-10-15T18:04:19.491Z,13.45
2022-10-15T18:06:46.460Z,14.25
2022-10-15T18:09:13.431Z,17.20
2022-10-15T18:11:40.710Z,16.92
2022-10-15T18:14:07.608Z,13.63
2022-10-15T18:16:34.749Z,18.63
2022-10-15T18:19:01.539Z,12.32
2022-10-15T18:21:28.773Z,14.13
2022-10-15T18:23:56.924Z,17.90
2022-10-15T18:26:24.307Z,14.05
2022-10-15T18:28:53.899Z,15.60
2022-10-15T18:31:22.238Z,15.05
2022-10-15T18:33:52.559Z,18.33
2022-10-15T18:36:26.533Z,16.70
2022-10-15T18:38:55.103Z,19.35
2022-10-15T18:41:28.703Z,17.52
2022-10-15T18:44:01.254Z,19.88
2022-10-15T18:46:29.748Z,18.08
2022-10-15T18:48:57.299Z,23.52
2022-10-15T18:51:27.410Z,13.93
2022-10-15T18:53:54.928Z,13.85
2022-10-15T18:56:22.737Z,15.80
2022-10-15T18:58:50.240Z,21.58
2022-10-15T19:01:29.183Z,19.33
2022-10-15T19:03:58.932Z,18.58
2022-10-15T19:06:34.445Z,22.15
2022-10-15T19:09:04.562Z,15.10
2022-10-15T19:11:32.651Z,12.77
2022-10-15T19:14:01.320Z,20.13
2022-10-15T19:16:28.783Z,16.45
2022-10-15T19:18:55.759Z,14.18
2022-10-15T19:21:22.801Z,20.55
2022-10-15T19:23:49.985Z,18.23
2022-10-15T19:26:17.517Z,20.10
2022-10-15T19:28:45.014Z,18.50
2022-10-15T19:31:22.984Z,17.95
2022-10-15T19:33:50.098Z,21.77
2022-10-15T19:36:29.602Z,17.38
2022-10-15T19:38:56.801Z,23.73
2022-10-15T19:41:23.737Z,16.25
2022-10-15T19:43:50.569Z,19.73
2022-10-15T19:46:17.411Z,20.98
2022-10-15T19:48:44.656Z,18.92
2022-10-15T19:51:11.553Z,22.17
2022-10-15T19:53:38.930Z,16.98
2022-10-15T19:56:10.053Z,16.50
2022-10-15T19:58:37.074Z,17.10
2022-10-15T20:01:03.978Z,15.20
2022-10-15T20:03:30.899Z,14.27
2022-10-15T20:05:58.320Z,15.40
2022-10-15T20:08:26.177Z,18.10
2022-10-15T20:10:53.803Z,15.60
2022-10-15T20:13:22.768Z,14.18
2022-10-15T20:15:54.076Z,14.65
2022-10-15T20:18:22.443Z,13.75
2022-10-15T20:20:49.743Z,15.77
2022-10-15T20:23:17.809Z,19.67
2022-10-15T20:25:45.760Z,16.73
2022-10-15T20:28:14.773Z,14.82
2022-10-15T20:30:42.329Z,11.13
2022-10-15T20:33:09.674Z,14.77
2022-10-15T20:35:38.618Z,18.65
2022-10-15T20:38:07.000Z,17.83
2022-10-15T20:40:35.170Z,18.85
2022-10-15T20:43:02.041Z,18.92
2022-10-15T20:45:36.745Z,17.55
2022-10-15T20:48:03.922Z,18.40
2022-10-15T20:50:34.804Z,20.52
2022-10-15T20:53:02.518Z,18.17
2022-10-15T20:55:29.400Z,17.80
2022-10-15T20:57:56.249Z,20.85
2022-10-15T21:00:23.544Z,18.42
2022-10-15T21:02:50.322Z,19.27
2022-10-15T21:05:17.366Z,18.25
2022-10-15T21:07:44.405Z,20.92
2022-10-15T21:10:11.292Z,19.33
2022-10-15T21:12:38.955Z,17.05
2022-10-15T21:15:06.753Z,15.32
2022-10-15T21:17:33.617Z,8.45
2022-10-15T21:20:00.698Z,11.75
2022-10-15T21:22:27.598Z,9.55
2022-10-15T21:24:54.397Z,13.60
2022-10-15T21:27:21.197Z,6.78
2022-10-15T21:29:49.601Z,11.32
2022-10-15T21:32:16.753Z,9.07
2022-10-15T21:34:43.704Z,9.00
2022-10-15T21:37:11.400Z,6.78
2022-10-15T21:39:38.310Z,12.27
2022-10-15T21:42:05.143Z,10.60
2022-10-15T21:44:31.956Z,8.93
2022-10-15T21:46:58.765Z,8.75
2022-10-15T21:49:25.582Z,7.60
2022-10-15T21:51:52.756Z,6.85
2022-10-15T21:56:46.340Z,6.43
2022-10-15T21:59:13.188Z,9.43
2022-10-15T22:01:42.060Z,7.38
2022-10-15T22:04:11.280Z,13.85
2022-10-15T22:06:40.388Z,7.93
2022-10-15T22:09:08.871Z,7.82
2022-10-15T22:11:39.665Z,13.50
2022-10-15T22:14:11.658Z,8.45
2022-10-15T22:16:40.135Z,9.15
2022-10-15T22:19:09.815Z,7.15
2022-10-15T22:21:38.739Z,11.32
2022-10-15T22:24:13.839Z,9.85
2022-10-15T22:29:30.634Z,6.85
2022-10-15T22:32:01.347Z,8.75
2022-10-15T22:34:28.135Z,6.25
2022-10-15T22:36:54.927Z,8.45
2022-10-15T22:39:22.163Z,12.02
2022-10-15T22:41:49.366Z,11.85
2022-10-15T22:44:19.787Z,10.63
2022-10-15T22:46:49.453Z,12.15
2022-10-15T22:49:19.917Z,10.10
2022-10-15T22:51:48.166Z,9.98
2022-10-15T22:54:17.771Z,16.00
2022-10-15T22:56:46.357Z,14.30
2022-10-15T22:59:13.497Z,18.98
2022-10-15T23:01:40.779Z,12.55
2022-10-15T23:04:08.690Z,16.80
2022-10-15T23:06:37.888Z,16.20
2022-10-15T23:09:06.728Z,15.35
2022-10-15T23:11:40.377Z,20.48
2022-10-15T23:14:12.795Z,21.88
2022-10-15T23:16:43.834Z,19.35
2022-10-15T23:19:20.202Z,16.10
2022-10-15T23:21:48.164Z,23.80
2022-10-15T23:24:16.934Z,18.20
2022-10-15T23:26:44.418Z,21.50
2022-10-15T23:29:20.267Z,15.30
2022-10-15T23:31:48.215Z,16.25
2022-10-15T23:34:21.808Z,19.92
2022-10-15T23:36:49.294Z,18.00
2022-10-15T23:39:20.153Z,17.73
2022-10-15T23:41:47.868Z,23.70
2022-10-15T23:44:14.755Z,19.20
2022-10-15T23:46:41.932Z,17.90
2022-10-15T23:49:09.325Z,17.40
2022-10-15T23:51:36.565Z,15.05
2022-10-15T23:54:12.234Z,15.85
2022-10-15T23:56:39.096Z,15.63
2022-10-15T23:59:06.034Z,24.60
